sensor_id;sensor_type;location;lat;lon;timestamp;temperature;humidity
17992;DHT22;9121;50.926;5.340;2023-05-07T00:00:49;15.40;99.90
17992;DHT22;9121;50.926;5.340;2023-05-07T00:03:16;15.40;99.90
17992;DHT22;9121;50.926;5.340;2023-05-07T00:05:44;15.50;99.90
17992;DHT22;9121;50.926;5.340;2023-05-07T00:08:12;15.50;99.90
17992;DHT22;9121;50.926;5.340;2023-05-07T00:10:39;15.50;99.90
17992;DHT22;9121;50.926;5.340;2023-05-07T00:13:05;15.50;99.90
17992;DHT22;9121;50.926;5.340;2023-05-07T00:15:32;15.60;99.90
17992;DHT22;9121;50.926;5.340;2023-05-07T00:18:01;15.60;99.90
17992;DHT22;9121;50.926;5.340;2023-05-07T00:20:28;15.60;99.90
17992;DHT22;9121;50.926;5.340;2023-05-07T00:22:54;15.60;99.90
17992;DHT22;9121;50.926;5.340;2023-05-07T00:25:21;15.60;99.90
17992;DHT22;9121;50.926;5.340;2023-05-07T00:27:48;15.60;99.90
17992;DHT22;9121;50.926;5.340;2023-05-07T00:30:15;15.60;99.90
17992;DHT22;9121;50.926;5.340;2023-05-07T00:32:42;15.70;99.90
17992;DHT22;9121;50.926;5.340;2023-05-07T00:35:12;15.90;99.90
17992;DHT22;9121;50.926;5.340;2023-05-07T00:37:39;16.00;99.90
17992;DHT22;9121;50.926;5.340;2023-05-07T00:40:07;16.00;99.90
17992;DHT22;9121;50.926;5.340;2023-05-07T00:42:34;16.00;99.90
17992;DHT22;9121;50.926;5.340;2023-05-07T00:45:01;16.00;99.90
17992;DHT22;9121;50.926;5.340;2023-05-07T00:47:28;16.00;99.90
17992;DHT22;9121;50.926;5.340;2023-05-07T00:49:57;15.90;99.90
17992;DHT22;9121;50.926;5.340;2023-05-07T00:52:26;15.90;99.90
17992;DHT22;9121;50.926;5.340;2023-05-07T00:54:53;15.70;99.90
17992;DHT22;9121;50.926;5.340;2023-05-07T00:57:21;15.80;99.90
17992;DHT22;9121;50.926;5.340;2023-05-07T00:59:48;15.80;99.90
17992;DHT22;9121;50.926;5.340;2023-05-07T01:02:15;15.90;99.90
17992;DHT22;9121;50.926;5.340;2023-05-07T01:04:43;15.90;99.90
17992;DHT22;9121;50.926;5.340;2023-05-07T01:07:10;15.90;99.90
17992;DHT22;9121;50.926;5.340;2023-05-07T01:09:38;15.90;99.90
17992;DHT22;9121;50.926;5.340;2023-05-07T01:12:07;15.80;99.90
17992;DHT22;9121;50.926;5.340;2023-05-07T01:14:34;15.70;99.90
17992;DHT22;9121;50.926;5.340;2023-05-07T01:17:01;15.60;99.90
17992;DHT22;9121;50.926;5.340;2023-05-07T01:19:29;15.50;99.90
17992;DHT22;9121;50.926;5.340;2023-05-07T01:22:02;15.50;99.90
17992;DHT22;9121;50.926;5.340;2023-05-07T01:24:31;15.50;99.90
17992;DHT22;9121;50.926;5.340;2023-05-07T01:26:59;15.40;99.90
17992;DHT22;9121;50.926;5.340;2023-05-07T01:29:27;15.30;99.90
17992;DHT22;9121;50.926;5.340;2023-05-07T01:31:55;15.30;99.90
17992;DHT22;9121;50.926;5.340;2023-05-07T01:34:23;15.30;99.90
17992;DHT22;9121;50.926;5.340;2023-05-07T01:36:52;15.20;99.90
17992;DHT22;9121;50.926;5.340;2023-05-07T01:39:21;15.20;99.90
17992;DHT22;9121;50.926;5.340;2023-05-07T01:41:51;15.10;99.90
17992;DHT22;9121;50.926;5.340;2023-05-07T01:44:18;15.10;99.90
17992;DHT22;9121;50.926;5.340;2023-05-07T01:46:46;15.10;99.90
17992;DHT22;9121;50.926;5.340;2023-05-07T01:49:14;15.20;99.90
17992;DHT22;9121;50.926;5.340;2023-05-07T01:51:42;15.30;99.90
17992;DHT22;9121;50.926;5.340;2023-05-07T01:54:10;15.30;99.90
17992;DHT22;9121;50.926;5.340;2023-05-07T01:56:37;15.40;99.90
17992;DHT22;9121;50.926;5.340;2023-05-07T01:59:05;15.40;99.90
17992;DHT22;9121;50.926;5.340;2023-05-07T02:01:32;15.50;99.90
17992;DHT22;9121;50.926;5.340;2023-05-07T02:03:59;15.50;99.90
17992;DHT22;9121;50.926;5.340;2023-05-07T02:06:26;15.50;99.90
17992;DHT22;9121;50.926;5.340;2023-05-07T02:08:53;15.50;99.90
17992;DHT22;9121;50.926;5.340;2023-05-07T02:11:19;15.40;99.90
17992;DHT22;9121;50.926;5.340;2023-05-07T02:13:46;15.30;99.90
17992;DHT22;9121;50.926;5.340;2023-05-07T02:16:15;15.20;99.90
17992;DHT22;9121;50.926;5.340;2023-05-07T02:18:42;15.10;99.90
17992;DHT22;9121;50.926;5.340;2023-05-07T02:21:09;15.10;99.90
17992;DHT22;9121;50.926;5.340;2023-05-07T02:23:35;15.20;99.90
17992;DHT22;9121;50.926;5.340;2023-05-07T02:26:04;15.20;99.90
17992;DHT22;9121;50.926;5.340;2023-05-07T02:28:31;15.20;99.90
17992;DHT22;9121;50.926;5.340;2023-05-07T02:30:58;15.10;99.90
17992;DHT22;9121;50.926;5.340;2023-05-07T02:33:27;15.10;99.90
17992;DHT22;9121;50.926;5.340;2023-05-07T02:35:54;15.10;99.90
17992;DHT22;9121;50.926;5.340;2023-05-07T02:38:21;15.20;99.90
17992;DHT22;9121;50.926;5.340;2023-05-07T02:40:48;15.20;99.90
17992;DHT22;9121;50.926;5.340;2023-05-07T02:43:15;15.20;99.90
17992;DHT22;9121;50.926;5.340;2023-05-07T02:45:42;15.10;99.90
17992;DHT22;9121;50.926;5.340;2023-05-07T02:48:09;15.10;99.90
17992;DHT22;9121;50.926;5.340;2023-05-07T02:50:38;15.10;99.90
17992;DHT22;9121;50.926;5.340;2023-05-07T02:53:04;15.00;99.90
17992;DHT22;9121;50.926;5.340;2023-05-07T02:55:32;15.00;99.90
17992;DHT22;9121;50.926;5.340;2023-05-07T02:57:59;15.00;99.90
17992;DHT22;9121;50.926;5.340;2023-05-07T03:00:26;15.00;99.90
17992;DHT22;9121;50.926;5.340;2023-05-07T03:02:52;15.10;99.90
17992;DHT22;9121;50.926;5.340;2023-05-07T03:05:20;15.10;99.90
17992;DHT22;9121;50.926;5.340;2023-05-07T03:07:48;15.10;99.90
17992;DHT22;9121;50.926;5.340;2023-05-07T03:10:15;15.10;99.90
17992;DHT22;9121;50.926;5.340;2023-05-07T03:12:42;15.20;99.90
17992;DHT22;9121;50.926;5.340;2023-05-07T03:15:10;15.20;99.90
17992;DHT22;9121;50.926;5.340;2023-05-07T03:17:38;15.10;99.90
17992;DHT22;9121;50.926;5.340;2023-05-07T03:20:06;15.10;99.90
17992;DHT22;9121;50.926;5.340;2023-05-07T03:22:33;15.20;99.90
17992;DHT22;9121;50.926;5.340;2023-05-07T03:25:02;15.10;99.90
17992;DHT22;9121;50.926;5.340;2023-05-07T03:27:29;15.10;99.90
17992;DHT22;9121;50.926;5.340;2023-05-07T03:29:55;15.10;99.90
17992;DHT22;9121;50.926;5.340;2023-05-07T03:32:22;15.10;99.90
17992;DHT22;9121;50.926;5.340;2023-05-07T03:34:49;15.10;99.90
17992;DHT22;9121;50.926;5.340;2023-05-07T03:37:16;15.10;99.90
17992;DHT22;9121;50.926;5.340;2023-05-07T03:39:43;15.10;99.90
17992;DHT22;9121;50.926;5.340;2023-05-07T03:42:11;15.20;99.90
17992;DHT22;9121;50.926;5.340;2023-05-07T03:44:38;15.10;99.90
17992;DHT22;9121;50.926;5.340;2023-05-07T03:47:05;15.10;99.90
17992;DHT22;9121;50.926;5.340;2023-05-07T03:49:33;15.00;99.90
17992;DHT22;9121;50.926;5.340;2023-05-07T03:52:00;15.00;99.90
17992;DHT22;9121;50.926;5.340;2023-05-07T03:54:27;15.00;99.90
17992;DHT22;9121;50.926;5.340;2023-05-07T03:56:54;14.90;99.90
17992;DHT22;9121;50.926;5.340;2023-05-07T03:59:22;14.80;99.90
17992;DHT22;9121;50.926;5.340;2023-05-07T04:01:49;14.80;99.90
17992;DHT22;9121;50.926;5.340;2023-05-07T04:04:17;14.80;99.90
17992;DHT22;9121;50.926;5.340;2023-05-07T04:06:43;14.90;99.90
17992;DHT22;9121;50.926;5.340;2023-05-07T04:09:10;14.90;99.90
17992;DHT22;9121;50.926;5.340;2023-05-07T04:11:37;14.90;99.90
17992;DHT22;9121;50.926;5.340;2023-05-07T04:14:05;14.90;99.90
17992;DHT22;9121;50.926;5.340;2023-05-07T04:16:34;14.90;99.90
17992;DHT22;9121;50.926;5.340;2023-05-07T04:19:01;14.90;99.90
17992;DHT22;9121;50.926;5.340;2023-05-07T04:21:28;14.90;99.90
17992;DHT22;9121;50.926;5.340;2023-05-07T04:23:56;14.90;99.90
17992;DHT22;9121;50.926;5.340;2023-05-07T04:26:22;15.00;99.90
17992;DHT22;9121;50.926;5.340;2023-05-07T04:28:49;15.10;99.90
17992;DHT22;9121;50.926;5.340;2023-05-07T04:31:16;15.20;99.90
17992;DHT22;9121;50.926;5.340;2023-05-07T04:33:45;15.20;99.90
17992;DHT22;9121;50.926;5.340;2023-05-07T04:36:12;15.30;99.90
17992;DHT22;9121;50.926;5.340;2023-05-07T04:38:38;15.30;99.90
17992;DHT22;9121;50.926;5.340;2023-05-07T04:41:09;15.30;99.90
17992;DHT22;9121;50.926;5.340;2023-05-07T04:43:36;15.30;99.90
17992;DHT22;9121;50.926;5.340;2023-05-07T04:46:03;15.30;99.90
17992;DHT22;9121;50.926;5.340;2023-05-07T04:48:30;15.40;99.90
17992;DHT22;9121;50.926;5.340;2023-05-07T04:50:58;15.40;99.90
17992;DHT22;9121;50.926;5.340;2023-05-07T04:53:25;15.40;99.90
17992;DHT22;9121;50.926;5.340;2023-05-07T04:55:55;15.40;99.90
17992;DHT22;9121;50.926;5.340;2023-05-07T04:58:23;15.40;99.90
17992;DHT22;9121;50.926;5.340;2023-05-07T05:00:50;15.30;99.90
17992;DHT22;9121;50.926;5.340;2023-05-07T05:03:17;15.30;99.90
17992;DHT22;9121;50.926;5.340;2023-05-07T05:05:44;15.20;99.90
17992;DHT22;9121;50.926;5.340;2023-05-07T05:08:12;15.20;99.90
17992;DHT22;9121;50.926;5.340;2023-05-07T05:10:39;15.30;99.90
17992;DHT22;9121;50.926;5.340;2023-05-07T05:13:07;15.30;99.90
17992;DHT22;9121;50.926;5.340;2023-05-07T05:15:34;15.30;99.90
17992;DHT22;9121;50.926;5.340;2023-05-07T05:18:01;15.30;99.90
17992;DHT22;9121;50.926;5.340;2023-05-07T05:20:28;15.30;99.90
17992;DHT22;9121;50.926;5.340;2023-05-07T05:22:55;15.30;99.90
17992;DHT22;9121;50.926;5.340;2023-05-07T05:25:24;15.40;99.90
17992;DHT22;9121;50.926;5.340;2023-05-07T05:27:51;15.40;99.90
17992;DHT22;9121;50.926;5.340;2023-05-07T05:30:17;15.50;99.90
17992;DHT22;9121;50.926;5.340;2023-05-07T05:32:44;15.50;99.90
17992;DHT22;9121;50.926;5.340;2023-05-07T05:35:11;15.60;99.90
17992;DHT22;9121;50.926;5.340;2023-05-07T05:37:38;15.70;99.90
17992;DHT22;9121;50.926;5.340;2023-05-07T05:40:06;15.80;99.90
17992;DHT22;9121;50.926;5.340;2023-05-07T05:42:35;15.90;99.90
17992;DHT22;9121;50.926;5.340;2023-05-07T05:45:02;15.90;99.90
17992;DHT22;9121;50.926;5.340;2023-05-07T05:47:29;15.90;99.90
17992;DHT22;9121;50.926;5.340;2023-05-07T05:49:56;16.00;99.90
17992;DHT22;9121;50.926;5.340;2023-05-07T05:52:23;16.10;99.90
17992;DHT22;9121;50.926;5.340;2023-05-07T05:54:50;16.10;99.90
17992;DHT22;9121;50.926;5.340;2023-05-07T05:57:17;16.20;99.90
17992;DHT22;9121;50.926;5.340;2023-05-07T05:59:46;16.10;99.90
17992;DHT22;9121;50.926;5.340;2023-05-07T06:02:13;16.20;99.90
17992;DHT22;9121;50.926;5.340;2023-05-07T06:04:40;16.20;99.90
17992;DHT22;9121;50.926;5.340;2023-05-07T06:07:08;16.20;99.90
17992;DHT22;9121;50.926;5.340;2023-05-07T06:09:35;16.20;99.90
17992;DHT22;9121;50.926;5.340;2023-05-07T06:12:02;16.20;99.90
17992;DHT22;9121;50.926;5.340;2023-05-07T06:14:29;16.30;99.90
17992;DHT22;9121;50.926;5.340;2023-05-07T06:16:57;16.40;99.90
17992;DHT22;9121;50.926;5.340;2023-05-07T06:19:24;16.50;99.90
17992;DHT22;9121;50.926;5.340;2023-05-07T06:21:52;16.60;99.90
17992;DHT22;9121;50.926;5.340;2023-05-07T06:24:19;16.60;99.90
17992;DHT22;9121;50.926;5.340;2023-05-07T06:26:46;16.80;99.90
17992;DHT22;9121;50.926;5.340;2023-05-07T06:29:13;16.80;99.90
17992;DHT22;9121;50.926;5.340;2023-05-07T06:31:40;17.00;99.90
17992;DHT22;9121;50.926;5.340;2023-05-07T06:34:08;17.00;99.90
17992;DHT22;9121;50.926;5.340;2023-05-07T06:36:35;17.10;99.90
17992;DHT22;9121;50.926;5.340;2023-05-07T06:39:02;17.00;99.20
17992;DHT22;9121;50.926;5.340;2023-05-07T06:41:29;17.00;99.90
17992;DHT22;9121;50.926;5.340;2023-05-07T06:43:56;17.10;97.40
17992;DHT22;9121;50.926;5.340;2023-05-07T06:46:23;17.10;98.80
17992;DHT22;9121;50.926;5.340;2023-05-07T06:48:50;17.00;97.50
17992;DHT22;9121;50.926;5.340;2023-05-07T06:51:19;17.10;99.90
17992;DHT22;9121;50.926;5.340;2023-05-07T06:53:46;17.10;97.10
17992;DHT22;9121;50.926;5.340;2023-05-07T06:56:12;17.20;91.80
17992;DHT22;9121;50.926;5.340;2023-05-07T06:58:40;17.20;91.00
17992;DHT22;9121;50.926;5.340;2023-05-07T07:01:07;17.30;90.90
17992;DHT22;9121;50.926;5.340;2023-05-07T07:03:34;17.50;89.50
17992;DHT22;9121;50.926;5.340;2023-05-07T07:06:01;17.60;79.10
17992;DHT22;9121;50.926;5.340;2023-05-07T07:08:30;17.70;75.40
17992;DHT22;9121;50.926;5.340;2023-05-07T07:10:57;17.70;66.70
17992;DHT22;9121;50.926;5.340;2023-05-07T07:13:24;17.90;64.70
17992;DHT22;9121;50.926;5.340;2023-05-07T07:15:51;18.10;62.80
17992;DHT22;9121;50.926;5.340;2023-05-07T07:18:19;18.10;49.70
17992;DHT22;9121;50.926;5.340;2023-05-07T07:20:46;18.10;50.70
17992;DHT22;9121;50.926;5.340;2023-05-07T07:23:12;18.20;43.50
17992;DHT22;9121;50.926;5.340;2023-05-07T07:25:41;18.30;34.80
17992;DHT22;9121;50.926;5.340;2023-05-07T07:28:08;18.40;35.00
17992;DHT22;9121;50.926;5.340;2023-05-07T07:30:36;18.50;31.40
17992;DHT22;9121;50.926;5.340;2023-05-07T07:33:03;18.70;25.20
17992;DHT22;9121;50.926;5.340;2023-05-07T07:35:30;18.70;22.80
17992;DHT22;9121;50.926;5.340;2023-05-07T07:37:57;18.50;29.30
17992;DHT22;9121;50.926;5.340;2023-05-07T07:40:25;18.30;29.30
17992;DHT22;9121;50.926;5.340;2023-05-07T07:42:53;18.10;37.90
17992;DHT22;9121;50.926;5.340;2023-05-07T07:45:20;18.30;43.30
17992;DHT22;9121;50.926;5.340;2023-05-07T07:47:47;18.50;25.20
17992;DHT22;9121;50.926;5.340;2023-05-07T07:50:14;18.50;17.10
17992;DHT22;9121;50.926;5.340;2023-05-07T07:52:41;18.40;19.00
17992;DHT22;9121;50.926;5.340;2023-05-07T07:55:09;18.60;19.40
17992;DHT22;9121;50.926;5.340;2023-05-07T07:57:36;18.70;11.80
17992;DHT22;9121;50.926;5.340;2023-05-07T08:00:05;19.00;7.80
17992;DHT22;9121;50.926;5.340;2023-05-07T08:02:32;19.10;1.00
17992;DHT22;9121;50.926;5.340;2023-05-07T08:04:59;19.20;1.00
17992;DHT22;9121;50.926;5.340;2023-05-07T08:07:26;19.40;1.00
17992;DHT22;9121;50.926;5.340;2023-05-07T08:09:53;19.60;1.00
17992;DHT22;9121;50.926;5.340;2023-05-07T08:12:20;19.70;1.00
17992;DHT22;9121;50.926;5.340;2023-05-07T08:14:47;19.80;1.00
17992;DHT22;9121;50.926;5.340;2023-05-07T08:17:16;19.90;1.00
17992;DHT22;9121;50.926;5.340;2023-05-07T08:19:43;20.10;1.00
17992;DHT22;9121;50.926;5.340;2023-05-07T08:22:10;20.10;1.00
17992;DHT22;9121;50.926;5.340;2023-05-07T08:24:37;20.20;1.00
17992;DHT22;9121;50.926;5.340;2023-05-07T08:27:04;20.30;1.00
17992;DHT22;9121;50.926;5.340;2023-05-07T08:29:31;20.50;99.90
17992;DHT22;9121;50.926;5.340;2023-05-07T08:31:58;20.40;99.90
17992;DHT22;9121;50.926;5.340;2023-05-07T08:34:26;20.30;99.90
17992;DHT22;9121;50.926;5.340;2023-05-07T08:36:53;20.10;1.00
17992;DHT22;9121;50.926;5.340;2023-05-07T08:39:20;20.20;1.00
17992;DHT22;9121;50.926;5.340;2023-05-07T08:41:48;20.30;1.00
17992;DHT22;9121;50.926;5.340;2023-05-07T08:44:21;20.50;1.00
17992;DHT22;9121;50.926;5.340;2023-05-07T08:46:50;20.50;1.00
17992;DHT22;9121;50.926;5.340;2023-05-07T08:49:19;20.40;1.00
17992;DHT22;9121;50.926;5.340;2023-05-07T08:51:48;20.50;1.00
17992;DHT22;9121;50.926;5.340;2023-05-07T08:54:16;20.50;1.00
17992;DHT22;9121;50.926;5.340;2023-05-07T08:56:43;20.50;1.00
17992;DHT22;9121;50.926;5.340;2023-05-07T08:59:10;20.60;1.00
17992;DHT22;9121;50.926;5.340;2023-05-07T09:01:37;20.80;1.00
17992;DHT22;9121;50.926;5.340;2023-05-07T09:04:04;20.90;1.00
17992;DHT22;9121;50.926;5.340;2023-05-07T09:06:32;21.00;99.90
17992;DHT22;9121;50.926;5.340;2023-05-07T09:09:01;21.10;99.90
17992;DHT22;9121;50.926;5.340;2023-05-07T09:11:30;21.20;99.90
17992;DHT22;9121;50.926;5.340;2023-05-07T09:13:58;21.30;99.90
17992;DHT22;9121;50.926;5.340;2023-05-07T09:16:28;21.50;99.90
17992;DHT22;9121;50.926;5.340;2023-05-07T09:18:58;21.50;99.90
17992;DHT22;9121;50.926;5.340;2023-05-07T09:21:25;21.60;99.90
17992;DHT22;9121;50.926;5.340;2023-05-07T09:23:54;21.60;99.90
17992;DHT22;9121;50.926;5.340;2023-05-07T09:26:23;21.70;99.90
17992;DHT22;9121;50.926;5.340;2023-05-07T09:28:51;21.80;99.90
17992;DHT22;9121;50.926;5.340;2023-05-07T09:31:19;22.00;99.90
17992;DHT22;9121;50.926;5.340;2023-05-07T09:33:46;22.00;99.90
17992;DHT22;9121;50.926;5.340;2023-05-07T09:36:13;22.00;99.90
17992;DHT22;9121;50.926;5.340;2023-05-07T09:38:40;21.90;99.90
17992;DHT22;9121;50.926;5.340;2023-05-07T09:41:09;22.00;99.90
17992;DHT22;9121;50.926;5.340;2023-05-07T09:43:38;22.10;99.90
17992;DHT22;9121;50.926;5.340;2023-05-07T09:46:08;22.20;99.90
17992;DHT22;9121;50.926;5.340;2023-05-07T09:48:37;22.20;99.90
17992;DHT22;9121;50.926;5.340;2023-05-07T09:51:11;22.20;99.90
17992;DHT22;9121;50.926;5.340;2023-05-07T09:53:43;22.20;99.90
17992;DHT22;9121;50.926;5.340;2023-05-07T09:56:13;22.20;99.90
17992;DHT22;9121;50.926;5.340;2023-05-07T09:58:42;22.30;99.90
17992;DHT22;9121;50.926;5.340;2023-05-07T10:01:11;22.30;99.90
17992;DHT22;9121;50.926;5.340;2023-05-07T10:03:40;22.10;99.90
17992;DHT22;9121;50.926;5.340;2023-05-07T10:06:09;22.00;99.90
17992;DHT22;9121;50.926;5.340;2023-05-07T10:08:37;21.80;99.90
17992;DHT22;9121;50.926;5.340;2023-05-07T10:11:04;21.80;99.90
17992;DHT22;9121;50.926;5.340;2023-05-07T10:13:32;21.70;99.90
17992;DHT22;9121;50.926;5.340;2023-05-07T10:16:03;21.50;99.90
17992;DHT22;9121;50.926;5.340;2023-05-07T10:18:30;21.40;1.00
17992;DHT22;9121;50.926;5.340;2023-05-07T10:21:03;21.30;1.00
17992;DHT22;9121;50.926;5.340;2023-05-07T10:23:32;21.20;1.00
17992;DHT22;9121;50.926;5.340;2023-05-07T10:26:01;21.10;1.00
17992;DHT22;9121;50.926;5.340;2023-05-07T10:28:30;21.00;1.00
17992;DHT22;9121;50.926;5.340;2023-05-07T10:31:14;21.10;1.00
17992;DHT22;9121;50.926;5.340;2023-05-07T10:33:46;21.00;1.00
17992;DHT22;9121;50.926;5.340;2023-05-07T10:36:13;20.80;1.00
17992;DHT22;9121;50.926;5.340;2023-05-07T10:38:40;20.80;1.00
17992;DHT22;9121;50.926;5.340;2023-05-07T10:41:07;20.80;1.00
17992;DHT22;9121;50.926;5.340;2023-05-07T10:43:41;20.80;1.00
17992;DHT22;9121;50.926;5.340;2023-05-07T10:46:17;20.70;1.00
17992;DHT22;9121;50.926;5.340;2023-05-07T10:49:06;20.70;1.00
17992;DHT22;9121;50.926;5.340;2023-05-07T10:51:34;20.70;1.00
17992;DHT22;9121;50.926;5.340;2023-05-07T10:54:21;20.60;1.00
17992;DHT22;9121;50.926;5.340;2023-05-07T10:56:48;20.50;1.00
17992;DHT22;9121;50.926;5.340;2023-05-07T10:59:36;20.50;1.00
17992;DHT22;9121;50.926;5.340;2023-05-07T11:02:10;20.40;1.00
17992;DHT22;9121;50.926;5.340;2023-05-07T11:04:39;20.30;1.00
17992;DHT22;9121;50.926;5.340;2023-05-07T11:07:30;20.30;1.00
17992;DHT22;9121;50.926;5.340;2023-05-07T11:10:02;20.30;1.00
17992;DHT22;9121;50.926;5.340;2023-05-07T11:12:49;20.30;1.00
17992;DHT22;9121;50.926;5.340;2023-05-07T11:15:35;20.30;1.00
17992;DHT22;9121;50.926;5.340;2023-05-07T11:18:04;20.20;1.00
17992;DHT22;9121;50.926;5.340;2023-05-07T11:20:51;20.00;1.00
17992;DHT22;9121;50.926;5.340;2023-05-07T11:23:55;20.00;1.00
17992;DHT22;9121;50.926;5.340;2023-05-07T11:26:26;20.00;1.00
17992;DHT22;9121;50.926;5.340;2023-05-07T11:28:53;20.00;1.00
17992;DHT22;9121;50.926;5.340;2023-05-07T11:31:23;20.00;1.00
17992;DHT22;9121;50.926;5.340;2023-05-07T11:33:52;20.10;1.00
17992;DHT22;9121;50.926;5.340;2023-05-07T11:36:20;20.00;1.00
17992;DHT22;9121;50.926;5.340;2023-05-07T11:38:47;19.90;1.00
17992;DHT22;9121;50.926;5.340;2023-05-07T11:41:15;19.70;1.00
17992;DHT22;9121;50.926;5.340;2023-05-07T11:43:56;19.70;1.00
17992;DHT22;9121;50.926;5.340;2023-05-07T11:46:23;19.60;1.00
17992;DHT22;9121;50.926;5.340;2023-05-07T11:48:52;19.50;1.00
17992;DHT22;9121;50.926;5.340;2023-05-07T11:51:19;19.50;1.00
17992;DHT22;9121;50.926;5.340;2023-05-07T11:53:46;19.40;1.00
17992;DHT22;9121;50.926;5.340;2023-05-07T11:56:14;19.50;1.00
17992;DHT22;9121;50.926;5.340;2023-05-07T11:58:42;19.40;1.00
17992;DHT22;9121;50.926;5.340;2023-05-07T12:01:10;19.50;3.10
17992;DHT22;9121;50.926;5.340;2023-05-07T12:03:39;19.60;4.50
17992;DHT22;9121;50.926;5.340;2023-05-07T12:06:09;19.80;21.20
17992;DHT22;9121;50.926;5.340;2023-05-07T12:08:36;19.80;11.60
17992;DHT22;9121;50.926;5.340;2023-05-07T12:11:03;19.90;6.10
17992;DHT22;9121;50.926;5.340;2023-05-07T12:13:33;20.00;7.20
17992;DHT22;9121;50.926;5.340;2023-05-07T12:16:00;20.10;7.60
17992;DHT22;9121;50.926;5.340;2023-05-07T12:18:29;20.10;1.50
17992;DHT22;9121;50.926;5.340;2023-05-07T12:20:56;20.00;5.00
17992;DHT22;9121;50.926;5.340;2023-05-07T12:23:25;20.00;11.00
17992;DHT22;9121;50.926;5.340;2023-05-07T12:25:52;19.80;18.20
17992;DHT22;9121;50.926;5.340;2023-05-07T12:28:19;19.90;18.20
17992;DHT22;9121;50.926;5.340;2023-05-07T12:30:48;20.00;22.40
17992;DHT22;9121;50.926;5.340;2023-05-07T12:33:16;19.90;1.00
17992;DHT22;9121;50.926;5.340;2023-05-07T12:35:44;19.70;12.30
17992;DHT22;9121;50.926;5.340;2023-05-07T12:38:12;19.80;30.30
17992;DHT22;9121;50.926;5.340;2023-05-07T12:40:43;19.90;33.60
17992;DHT22;9121;50.926;5.340;2023-05-07T12:43:15;19.90;25.00
17992;DHT22;9121;50.926;5.340;2023-05-07T12:45:43;20.10;34.40
17992;DHT22;9121;50.926;5.340;2023-05-07T12:48:11;20.10;19.20
17992;DHT22;9121;50.926;5.340;2023-05-07T12:50:38;20.30;16.70
17992;DHT22;9121;50.926;5.340;2023-05-07T12:53:06;20.20;1.00
17992;DHT22;9121;50.926;5.340;2023-05-07T12:55:42;20.10;5.30
17992;DHT22;9121;50.926;5.340;2023-05-07T12:58:18;20.20;1.00
17992;DHT22;9121;50.926;5.340;2023-05-07T13:00:47;20.30;1.00
17992;DHT22;9121;50.926;5.340;2023-05-07T13:03:21;20.40;3.80
17992;DHT22;9121;50.926;5.340;2023-05-07T13:05:49;20.30;1.00
17992;DHT22;9121;50.926;5.340;2023-05-07T13:08:27;20.30;1.00
17992;DHT22;9121;50.926;5.340;2023-05-07T13:10:56;20.30;1.00
17992;DHT22;9121;50.926;5.340;2023-05-07T13:13:23;20.40;1.00
17992;DHT22;9121;50.926;5.340;2023-05-07T13:15:50;20.50;1.00
17992;DHT22;9121;50.926;5.340;2023-05-07T13:18:17;20.60;1.00
17992;DHT22;9121;50.926;5.340;2023-05-07T13:20:44;20.50;1.00
17992;DHT22;9121;50.926;5.340;2023-05-07T13:23:11;20.60;1.00
17992;DHT22;9121;50.926;5.340;2023-05-07T13:25:38;20.60;1.00
17992;DHT22;9121;50.926;5.340;2023-05-07T13:28:07;20.50;1.00
17992;DHT22;9121;50.926;5.340;2023-05-07T13:30:33;20.70;1.00
17992;DHT22;9121;50.926;5.340;2023-05-07T13:33:01;20.80;1.00
17992;DHT22;9121;50.926;5.340;2023-05-07T13:35:28;20.90;1.00
17992;DHT22;9121;50.926;5.340;2023-05-07T13:37:55;20.90;1.00
17992;DHT22;9121;50.926;5.340;2023-05-07T13:40:22;20.80;1.00
17992;DHT22;9121;50.926;5.340;2023-05-07T13:42:49;20.80;1.00
17992;DHT22;9121;50.926;5.340;2023-05-07T13:45:18;20.90;1.00
17992;DHT22;9121;50.926;5.340;2023-05-07T13:47:45;20.90;1.00
17992;DHT22;9121;50.926;5.340;2023-05-07T13:50:14;20.90;1.00
17992;DHT22;9121;50.926;5.340;2023-05-07T13:52:42;21.00;1.00
17992;DHT22;9121;50.926;5.340;2023-05-07T13:55:11;20.80;1.00
17992;DHT22;9121;50.926;5.340;2023-05-07T13:57:38;20.80;1.00
17992;DHT22;9121;50.926;5.340;2023-05-07T14:00:06;20.80;1.00
17992;DHT22;9121;50.926;5.340;2023-05-07T14:02:35;20.80;1.00
17992;DHT22;9121;50.926;5.340;2023-05-07T14:05:02;20.70;1.00
17992;DHT22;9121;50.926;5.340;2023-05-07T14:07:29;20.90;1.00
17992;DHT22;9121;50.926;5.340;2023-05-07T14:09:56;20.90;1.00
17992;DHT22;9121;50.926;5.340;2023-05-07T14:12:24;20.90;1.00
17992;DHT22;9121;50.926;5.340;2023-05-07T14:14:51;21.00;1.00
17992;DHT22;9121;50.926;5.340;2023-05-07T14:17:18;21.10;1.00
17992;DHT22;9121;50.926;5.340;2023-05-07T14:19:46;21.20;1.00
17992;DHT22;9121;50.926;5.340;2023-05-07T14:22:13;21.30;1.00
17992;DHT22;9121;50.926;5.340;2023-05-07T14:24:41;21.20;1.00
17992;DHT22;9121;50.926;5.340;2023-05-07T14:27:07;21.20;1.00
17992;DHT22;9121;50.926;5.340;2023-05-07T14:29:34;21.20;1.00
17992;DHT22;9121;50.926;5.340;2023-05-07T14:32:01;21.20;1.00
17992;DHT22;9121;50.926;5.340;2023-05-07T14:34:29;21.40;1.00
17992;DHT22;9121;50.926;5.340;2023-05-07T14:36:58;21.50;1.00
17992;DHT22;9121;50.926;5.340;2023-05-07T14:39:25;21.40;1.00
17992;DHT22;9121;50.926;5.340;2023-05-07T14:41:52;21.20;1.00
17992;DHT22;9121;50.926;5.340;2023-05-07T14:44:20;21.00;1.00
17992;DHT22;9121;50.926;5.340;2023-05-07T14:46:47;21.00;1.00
17992;DHT22;9121;50.926;5.340;2023-05-07T14:49:14;21.00;1.00
17992;DHT22;9121;50.926;5.340;2023-05-07T14:51:43;21.00;1.00
17992;DHT22;9121;50.926;5.340;2023-05-07T14:54:12;20.80;1.00
17992;DHT22;9121;50.926;5.340;2023-05-07T14:56:39;20.70;1.00
17992;DHT22;9121;50.926;5.340;2023-05-07T14:59:06;20.70;1.00
17992;DHT22;9121;50.926;5.340;2023-05-07T15:01:34;20.70;1.00
17992;DHT22;9121;50.926;5.340;2023-05-07T15:04:03;20.70;1.00
17992;DHT22;9121;50.926;5.340;2023-05-07T15:06:30;20.80;1.00
17992;DHT22;9121;50.926;5.340;2023-05-07T15:08:57;20.90;1.00
17992;DHT22;9121;50.926;5.340;2023-05-07T15:11:26;20.90;1.00
17992;DHT22;9121;50.926;5.340;2023-05-07T15:13:53;20.70;1.00
17992;DHT22;9121;50.926;5.340;2023-05-07T15:16:20;20.70;1.00
17992;DHT22;9121;50.926;5.340;2023-05-07T15:18:47;20.90;1.00
17992;DHT22;9121;50.926;5.340;2023-05-07T15:21:14;20.80;1.00
17992;DHT22;9121;50.926;5.340;2023-05-07T15:23:42;20.70;1.00
17992;DHT22;9121;50.926;5.340;2023-05-07T15:26:10;20.70;1.00
17992;DHT22;9121;50.926;5.340;2023-05-07T15:28:38;20.70;1.00
17992;DHT22;9121;50.926;5.340;2023-05-07T15:31:06;20.80;1.00
17992;DHT22;9121;50.926;5.340;2023-05-07T15:33:33;20.80;1.00
17992;DHT22;9121;50.926;5.340;2023-05-07T15:36:00;21.00;1.00
17992;DHT22;9121;50.926;5.340;2023-05-07T15:38:29;21.10;1.00
17992;DHT22;9121;50.926;5.340;2023-05-07T15:40:56;21.10;1.00
17992;DHT22;9121;50.926;5.340;2023-05-07T15:43:23;21.10;1.00
17992;DHT22;9121;50.926;5.340;2023-05-07T15:45:51;21.20;1.00
17992;DHT22;9121;50.926;5.340;2023-05-07T15:48:18;21.20;1.00
17992;DHT22;9121;50.926;5.340;2023-05-07T15:50:46;21.30;1.00
17992;DHT22;9121;50.926;5.340;2023-05-07T15:53:13;21.40;1.00
17992;DHT22;9121;50.926;5.340;2023-05-07T15:55:42;21.50;1.00
17992;DHT22;9121;50.926;5.340;2023-05-07T15:58:09;21.50;1.00